Match Point — CRA4590 — position and weather

sailwx.info

Track history (hours):
 
Tides and Currents Weather Stations Pressure Air Temp Water Temp Dewpoint Dewpoint Depression Visibility Wind Speed Wind Dir Waves Ship Positions

Match Point

Last reported at 2015-Sep-27 16:31 UTC. Time now 2016-May-28 02:06 UTC.
Position N 38°40' W 009°19'.
Warning: this ship's position is months out of date.

Length 15 m.

Type: Sailing vessel. MMSI: 263913640.

Date/timePositionNaut miles runAvg speedWind from/ knotsBaromVisibWave heightAir tempDewpointWater temp
2015-Sep-27 16:31N 38°40' W 009°19'4 4.1
2015-Sep-27 15:30N 38°41' W 009°14'6 5.2
2015-Sep-27 14:23N 38°43' W 009°07'4 3.1
2015-Sep-27 13:06N 38°47' W 009°05'5 7.4
2015-Sep-27 12:29N 38°42' W 009°08'8 8.6
2015-Sep-27 11:33N 38°41' W 009°18'  
2015-Sep-20 18:17N 38°41' W 009°19'6 7.7
2015-Sep-20 17:28N 38°35' W 009°16'7 7.2
2015-Sep-20 16:27N 38°28' W 009°12'13 0.6
2015-Sep-19 18:04N 38°29' W 008°56'3 5.6
2015-Sep-19 17:28N 38°28' W 008°59'0 0.3
2015-Sep-19 16:17N 38°28' W 008°59'0 0.0
2015-Sep-19 15:29N 38°28' W 008°59'0 0.0
2015-Sep-19 14:05N 38°28' W 008°59'3 5.7
2015-Sep-19 13:33N 38°26' W 009°02'9 7.2
2015-Sep-19 12:19N 38°25' W 009°13'6 7.8
2015-Sep-19 11:30N 38°31' W 009°16'7 7.5
2015-Sep-19 10:31N 38°38' W 009°18'3 2.9
2015-Sep-19 09:32N 38°41' W 009°19'  
Track history (hours):
 
Tides and Currents Weather Stations Pressure Air Temp Water Temp Dewpoint Dewpoint Depression Visibility Wind Speed Wind Dir Waves Ship Positions

Match Point

Last reported at 2015-Sep-27 16:31 UTC. Time now 2016-May-28 02:06 UTC.
Position N 38°40' W 009°19'.
Warning: this ship's position is months out of date.

Length 15 m.

Type: Sailing vessel. MMSI: 263913640.

Date/timePositionNaut miles runAvg speedWind from/ knotsBaromVisibWave heightAir tempDewpointWater temp
2015-Sep-27 16:31N 38°40' W 009°19'4 4.1
2015-Sep-27 15:30N 38°41' W 009°14'6 5.2
2015-Sep-27 14:23N 38°43' W 009°07'4 3.1
2015-Sep-27 13:06N 38°47' W 009°05'5 7.4
2015-Sep-27 12:29N 38°42' W 009°08'8 8.6
2015-Sep-27 11:33N 38°41' W 009°18'  
2015-Sep-20 18:17N 38°41' W 009°19'6 7.7
2015-Sep-20 17:28N 38°35' W 009°16'7 7.2
2015-Sep-20 16:27N 38°28' W 009°12'13 0.6
2015-Sep-19 18:04N 38°29' W 008°56'3 5.6
2015-Sep-19 17:28N 38°28' W 008°59'0 0.3
2015-Sep-19 16:17N 38°28' W 008°59'0 0.0
2015-Sep-19 15:29N 38°28' W 008°59'0 0.0
2015-Sep-19 14:05N 38°28' W 008°59'3 5.7
2015-Sep-19 13:33N 38°26' W 009°02'9 7.2
2015-Sep-19 12:19N 38°25' W 009°13'6 7.8
2015-Sep-19 11:30N 38°31' W 009°16'7 7.5
2015-Sep-19 10:31N 38°38' W 009°18'3 2.9
2015-Sep-19 09:32N 38°41' W 009°19'  

Dump ship's entire track history